»·PEaware :: SWA226 KBUR-KPHX

SWA226 :: KBUR-KPHX

FLIGHT INFORMATION

Flight Status: Arrived
Operator:
Southwest Airlines
More flights by this operator :: More flights under this callsign
Pilot: Ben F. (2808)
Aircraft: BOEING 737-300
(B733)
More flights by this aircraft type
Origin: KBUR Bob Hope-Burbank
United States
Destination: KPHX Phoenix Sky Harbor Intl
United States
More flights between these airports :: More routes between these airports
Route: VNY3 PMD J65 BLH HYDRR1
File this flight plan on PilotEdge
Remarks:
Altitude:
(Current/Filed)
33,000ft
Speed:
(Current/Filed)
443kts
Departed: 18-Sep-18 06:57 PM
Arrived: 18-Sep-18 08:01 PM
Distance/Time
Traveled:
320nm/1:03
Distance/Time
To Go:
Arrived

Flight Plot

Page will automatically refresh every two minutes.

Flight plan parsing failed; only flown route is shown


Map Options




Map Legend


Flown Route
Filed Route
Departure Airport
Arrival Airport
Navaid (VOR, NDB)
Fix

Horizontal Profiles

Position Reports

Time Latitude Longitude Heading Altitude Ground
Speed
18-Sep-18 18:44 34.196773 -118.351977 179 783ft 0kts
18-Sep-18 18:45 34.196773 -118.351977 179 783ft 0kts
18-Sep-18 18:46 34.196773 -118.351977 179 783ft 0kts
18-Sep-18 18:47 34.196773 -118.351977 179 783ft 0kts
18-Sep-18 18:48 34.196773 -118.351977 179 783ft 0kts
18-Sep-18 18:49 34.196773 -118.351977 179 783ft 0kts
18-Sep-18 18:50 34.196773 -118.351977 179 783ft 0kts
18-Sep-18 18:51 34.196808 -118.351977 180 783ft 2kts
18-Sep-18 18:52 34.197184 -118.351708 277 783ft 1kts
18-Sep-18 18:53 34.197182 -118.351662 270 783ft 0kts
18-Sep-18 18:54 34.197187 -118.352144 270 783ft 8kts
18-Sep-18 18:55 34.198070 -118.355169 342 783ft 19kts
18-Sep-18 18:56 34.205422 -118.357198 347 783ft 24kts
18-Sep-18 18:57 34.211188 -118.358783 343 783ft 23kts
18-Sep-18 18:58 34.211814 -118.359486 294 783ft 7kts
18-Sep-18 18:59 34.193168 -118.355216 167 878ft 170kts
18-Sep-18 19:00 34.154587 -118.373996 223 2899ft 193kts
18-Sep-18 19:01 34.118530 -118.425415 268 4038ft 220kts
18-Sep-18 19:02 34.171445 -118.466991 352 6092ft 282kts
18-Sep-18 19:03 34.250987 -118.478745 352 9064ft 298kts
18-Sep-18 19:04 34.350552 -118.492883 354 11872ft 330kts
18-Sep-18 19:05 34.413788 -118.446340 64 13548ft 355kts
18-Sep-18 19:06 34.471932 -118.318449 54 14051ft 377kts
18-Sep-18 19:07 34.525363 -118.233574 53 15671ft 388kts
18-Sep-18 19:08 34.602925 -118.109537 53 18135ft 406kts
18-Sep-18 19:09 34.614232 -118.003081 113 19676ft 403kts
18-Sep-18 19:10 34.575014 -117.874125 113 21587ft 415kts
18-Sep-18 19:11 34.535411 -117.741552 113 23306ft 426kts
18-Sep-18 19:12 34.494511 -117.605149 113 24881ft 437kts
18-Sep-18 19:13 34.452330 -117.465130 113 26241ft 448kts
18-Sep-18 19:14 34.409108 -117.322287 114 27388ft 460kts
18-Sep-18 19:15 34.365186 -117.177658 115 28984ft 457kts
18-Sep-18 19:16 34.320941 -117.035042 115 30579ft 452kts
18-Sep-18 19:17 34.277831 -116.894663 115 32232ft 443kts
18-Sep-18 19:18 34.234986 -116.755730 115 33157ft 449kts
18-Sep-18 19:19 34.190615 -116.612498 114 33061ft 457kts
18-Sep-18 19:20 34.145921 -116.468920 114 32877ft 458kts
18-Sep-18 19:21 34.101578 -116.327127 115 32783ft 460kts
18-Sep-18 19:22 34.056438 -116.183232 115 32873ft 459kts
18-Sep-18 19:23 34.011178 -116.039912 115 32868ft 459kts
18-Sep-18 19:24 33.965975 -115.897456 115 32908ft 459kts
18-Sep-18 19:25 33.920605 -115.755133 115 32914ft 459kts
18-Sep-18 19:26 33.875776 -115.615803 116 32914ft 459kts
18-Sep-18 19:27 33.829670 -115.472694 115 32913ft 459kts
18-Sep-18 19:28 33.783325 -115.332635 116 32831ft 460kts
18-Sep-18 19:29 33.737137 -115.190197 116 32764ft 459kts
18-Sep-18 19:30 33.690703 -115.047928 115 32750ft 457kts
18-Sep-18 19:31 33.644311 -114.906432 115 32750ft 457kts
18-Sep-18 19:32 33.598448 -114.767068 114 32751ft 457kts
18-Sep-18 19:33 33.568357 -114.618539 106 32752ft 462kts
18-Sep-18 19:34 33.539428 -114.469420 106 32748ft 461kts
18-Sep-18 19:35 33.510886 -114.323559 106 29383ft 469kts
18-Sep-18 19:36 33.481662 -114.174883 106 26339ft 460kts
18-Sep-18 19:37 33.452855 -114.031445 107 24745ft 431kts
18-Sep-18 19:38 33.424245 -113.889850 106 24064ft 442kts
18-Sep-18 19:39 33.396282 -113.750404 106 22200ft 412kts
18-Sep-18 19:40 33.368976 -113.615269 106 21360ft 415kts
18-Sep-18 19:41 33.341893 -113.481926 106 20338ft 411kts
18-Sep-18 19:42 33.318244 -113.350034 104 19050ft 401kts
18-Sep-18 19:43 33.297332 -113.228146 103 17832ft 373kts
18-Sep-18 19:44 33.280165 -113.109391 102 16981ft 357kts
18-Sep-18 19:45 33.276207 -112.990445 90 16180ft 352kts
18-Sep-18 19:46 33.279238 -112.879852 90 14881ft 326kts
18-Sep-18 19:47 33.285091 -112.773032 84 13596ft 321kts
18-Sep-18 19:48 33.295011 -112.668929 84 12316ft 314kts
18-Sep-18 19:49 33.304641 -112.566399 84 11551ft 311kts
18-Sep-18 19:50 33.314105 -112.464674 84 11517ft 311kts
18-Sep-18 19:51 33.323507 -112.362709 84 11505ft 311kts
18-Sep-18 19:52 33.332018 -112.267096 85 10662ft 297kts
18-Sep-18 19:53 33.340515 -112.173548 85 9449ft 276kts
18-Sep-18 19:54 33.347814 -112.087620 91 8996ft 256kts
18-Sep-18 19:55 33.346636 -112.002428 92 7999ft 252kts
18-Sep-18 19:56 33.345202 -111.920714 92 6605ft 243kts
18-Sep-18 19:57 33.343780 -111.842461 83 5383ft 228kts
18-Sep-18 19:58 33.390608 -111.814037 347 4151ft 206kts
18-Sep-18 19:59 33.427602 -111.858167 291 2965ft 190kts
18-Sep-18 20:00 33.431339 -111.914351 267 2219ft 149kts
18-Sep-18 20:01 33.431032 -111.962694 269 1644ft 148kts
18-Sep-18 20:02 33.431052 -112.007693 269 1141ft 92kts
18-Sep-18 20:03 33.432376 -112.012075 37 1141ft 11kts
18-Sep-18 20:04 33.432880 -112.006506 90 1141ft 20kts
18-Sep-18 20:05 33.432837 -111.999204 89 1141ft 24kts
18-Sep-18 20:06 33.434040 -111.996098 282 1141ft 5kts

Navigation Log

Ident Type
Flight plan parsing failed, navigation log unavailable